Time;durP1;ratioP1;P1;durP2;ratioP2;P2;SDS_P1;SDS_P2;PMS_P1;PMS_P2;Temp;Humidity;BMP_temperature;BMP_pressure;BME280_temperature;BME280_humidity;BME280_pressure;Samples;Min_cycle;Max_cycle;Signal;HPM_P1;HPM_P2
2022/07/18 00:00:11;;;;;;;2.35;1.40;;;;;;;;;;5055374;28;20472;-79
2022/07/18 00:02:37;;;;;;;1.70;1.60;;;;;;;;;;5054862;28;20413;-79
2022/07/18 00:05:03;;;;;;;2.22;1.70;;;;;;;;;;5052001;28;20377;-79
2022/07/18 00:07:29;;;;;;;1.70;1.30;;;;;;;;;;5055110;28;20750;-79
2022/07/18 00:09:55;;;;;;;1.93;1.70;;;;;;;;;;5055260;28;20443;-79
2022/07/18 00:12:21;;;;;;;2.10;1.57;;;;;;;;;;5055084;28;20377;-79
2022/07/18 00:14:47;;;;;;;1.77;1.52;;;;;;;;;;5055043;28;20739;-79
2022/07/18 00:17:13;;;;;;;1.70;1.60;;;;;;;;;;5055067;28;20439;-79
2022/07/18 00:19:40;;;;;;;1.42;1.33;;;;;;;;;;5054970;28;20392;-79
2022/07/18 00:22:06;;;;;;;1.65;1.55;;;;;;;;;;5054889;28;20381;-79
2022/07/18 00:24:32;;;;;;;1.67;1.58;;;;;;;;;;5054872;28;20405;-79
2022/07/18 00:26:58;;;;;;;1.85;1.63;;;;;;;;;;5054823;28;20388;-79
2022/07/18 00:29:25;;;;;;;1.70;1.60;;;;;;;;;;5054960;28;20397;-79
2022/07/18 00:31:51;;;;;;;1.63;1.52;;;;;;;;;;5054688;28;20426;-79
2022/07/18 00:34:17;;;;;;;2.10;1.50;;;;;;;;;;5054441;28;20413;-79
2022/07/18 00:36:43;;;;;;;1.73;1.52;;;;;;;;;;5054274;28;20794;-79
2022/07/18 00:39:09;;;;;;;1.60;1.50;;;;;;;;;;5054665;28;20388;-79
2022/07/18 00:41:35;;;;;;;1.60;1.50;;;;;;;;;;5054511;28;20864;-79
2022/07/18 00:44:01;;;;;;;2.72;1.50;;;;;;;;;;5054245;28;20405;-79
2022/07/18 00:46:28;;;;;;;1.83;1.60;;;;;;;;;;5054427;28;20385;-79
2022/07/18 00:48:54;;;;;;;1.65;1.55;;;;;;;;;;5052439;28;20750;-79
2022/07/18 00:51:21;;;;;;;1.65;1.55;;;;;;;;;;5053338;28;20386;-79
2022/07/18 00:53:48;;;;;;;2.50;1.75;;;;;;;;;;5054343;28;20431;-79
2022/07/18 00:56:17;;;;;;;2.03;1.40;;;;;;;;;;5054243;28;20393;-79
2022/07/18 00:58:44;;;;;;;1.60;1.50;;;;;;;;;;5054200;28;20805;-79
2022/07/18 01:03:55;;;;;;;1.65;1.55;;;;;;;;;;5053761;28;20571;-79
2022/07/18 01:06:22;;;;;;;2.05;1.50;;;;;;;;;;5054145;28;20377;-79
2022/07/18 01:08:48;;;;;;;2.08;1.50;;;;;;;;;;5054010;28;20431;-79
2022/07/18 01:11:14;;;;;;;1.58;1.23;;;;;;;;;;5054106;28;20970;-79
2022/07/18 01:13:41;;;;;;;2.07;1.60;;;;;;;;;;5054134;28;20403;-79
2022/07/18 01:16:07;;;;;;;1.30;1.20;;;;;;;;;;5053822;28;20390;-79
2022/07/18 01:18:33;;;;;;;1.52;1.42;;;;;;;;;;5053928;28;20389;-79
2022/07/18 01:20:59;;;;;;;3.42;1.55;;;;;;;;;;5053840;28;20870;-79
2022/07/18 01:23:25;;;;;;;1.73;1.63;;;;;;;;;;5053959;28;20469;-79
2022/07/18 01:25:51;;;;;;;1.90;1.70;;;;;;;;;;5053708;28;20734;-79
2022/07/18 01:28:18;;;;;;;1.60;1.50;;;;;;;;;;5053698;28;20377;-79
2022/07/18 01:30:44;;;;;;;1.83;1.60;;;;;;;;;;5053703;28;20786;-79
2022/07/18 01:33:10;;;;;;;3.13;1.60;;;;;;;;;;5044787;28;20858;-79
2022/07/18 01:35:36;;;;;;;2.15;1.50;;;;;;;;;;5053261;28;20381;-79
2022/07/18 01:38:03;;;;;;;1.70;1.60;;;;;;;;;;5053468;28;20382;-79
2022/07/18 01:40:29;;;;;;;1.60;1.50;;;;;;;;;;5053516;28;20385;-79
2022/07/18 01:42:56;;;;;;;2.00;1.80;;;;;;;;;;5053293;28;20405;-79
2022/07/18 01:45:22;;;;;;;2.00;1.60;;;;;;;;;;5053341;28;20377;-79
2022/07/18 01:47:48;;;;;;;1.70;1.60;;;;;;;;;;5047295;28;20777;-79
2022/07/18 01:50:14;;;;;;;2.40;1.70;;;;;;;;;;5048385;28;20459;-79
2022/07/18 01:52:40;;;;;;;2.10;1.60;;;;;;;;;;5051585;28;20424;-79
2022/07/18 01:55:08;;;;;;;1.67;1.57;;;;;;;;;;5052927;28;20396;-79
2022/07/18 01:57:34;;;;;;;1.60;1.50;;;;;;;;;;5052975;28;20395;-79
2022/07/18 02:00:00;;;;;;;1.70;1.60;;;;;;;;;;5053151;28;20940;-79
2022/07/18 02:02:26;;;;;;;1.70;1.60;;;;;;;;;;5052928;28;20421;-79
2022/07/18 02:05:02;;;;;;;2.50;1.52;;;;;;;;;;5051335;28;20401;-79
2022/07/18 02:07:28;;;;;;;1.70;1.60;;;;;;;;;;5037425;28;20404;-79
2022/07/18 02:09:55;;;;;;;1.80;1.70;;;;;;;;;;5051663;28;20373;-79
2022/07/18 02:12:21;;;;;;;2.38;1.50;;;;;;;;;;5048077;28;20413;-79
2022/07/18 02:14:47;;;;;;;1.63;1.50;;;;;;;;;;5052023;28;20373;-79
2022/07/18 02:17:13;;;;;;;2.05;1.70;;;;;;;;;;5052753;28;20427;-79
2022/07/18 02:19:39;;;;;;;1.85;1.50;;;;;;;;;;5051872;28;20426;-79
2022/07/18 02:22:05;;;;;;;1.58;1.48;;;;;;;;;;5052703;28;20373;-79
2022/07/18 02:24:32;;;;;;;2.88;1.70;;;;;;;;;;5052655;28;20465;-79
2022/07/18 02:26:58;;;;;;;1.88;1.65;;;;;;;;;;5052588;28;20483;-79
2022/07/18 02:29:24;;;;;;;2.38;2.00;;;;;;;;;;5052562;28;20405;-79
2022/07/18 02:31:50;;;;;;;1.70;1.60;;;;;;;;;;5050460;28;20428;-79
2022/07/18 02:34:16;;;;;;;2.08;1.98;;;;;;;;;;5046445;28;20955;-79
2022/07/18 02:36:42;;;;;;;1.60;1.50;;;;;;;;;;5052514;28;20468;-79
2022/07/18 02:39:09;;;;;;;1.98;1.50;;;;;;;;;;5052199;28;20381;-80
2022/07/18 02:41:35;;;;;;;1.60;1.50;;;;;;;;;;5050575;28;20385;-79
2022/07/18 02:44:01;;;;;;;2.40;1.50;;;;;;;;;;5051125;28;20401;-79
2022/07/18 02:46:27;;;;;;;1.90;1.80;;;;;;;;;;5052235;28;20468;-80
2022/07/18 02:48:53;;;;;;;1.60;1.50;;;;;;;;;;5052307;28;20397;-79
2022/07/18 02:51:19;;;;;;;1.90;1.60;;;;;;;;;;5051949;28;20374;-79
2022/07/18 02:53:45;;;;;;;1.90;1.80;;;;;;;;;;5049243;28;20401;-79
2022/07/18 02:56:11;;;;;;;1.63;1.38;;;;;;;;;;5044359;28;20424;-80
2022/07/18 02:58:37;;;;;;;2.45;1.80;;;;;;;;;;5051920;28;20993;-79
2022/07/18 03:01:03;;;;;;;1.70;1.38;;;;;;;;;;5052404;28;20797;-79
2022/07/18 03:03:29;;;;;;;1.70;1.60;;;;;;;;;;5051974;28;20785;-79
2022/07/18 03:05:56;;;;;;;1.83;1.70;;;;;;;;;;5051799;28;20381;-79
2022/07/18 03:08:22;;;;;;;1.73;1.63;;;;;;;;;;5051093;28;20370;-79
2022/07/18 03:10:48;;;;;;;2.00;1.70;;;;;;;;;;5033902;28;20392;-79
2022/07/18 03:13:14;;;;;;;2.35;1.70;;;;;;;;;;5052077;28;20394;-79
2022/07/18 03:15:40;;;;;;;1.98;1.70;;;;;;;;;;5051866;28;20876;-80
2022/07/18 03:18:06;;;;;;;1.88;1.77;;;;;;;;;;5052004;28;20755;-79
2022/07/18 03:20:33;;;;;;;2.10;1.90;;;;;;;;;;5052182;28;20397;-79
2022/07/18 03:22:59;;;;;;;2.20;1.75;;;;;;;;;;5052107;28;20405;-79
2022/07/18 03:25:25;;;;;;;1.70;1.60;;;;;;;;;;5052016;28;20449;-79
2022/07/18 03:27:51;;;;;;;1.77;1.67;;;;;;;;;;5051752;28;20385;-79
2022/07/18 03:30:17;;;;;;;2.05;1.90;;;;;;;;;;5051938;28;20384;-79
2022/07/18 03:32:43;;;;;;;2.13;1.73;;;;;;;;;;5043170;28;20383;-79
2022/07/18 03:35:09;;;;;;;2.23;1.60;;;;;;;;;;5051882;28;20463;-79
2022/07/18 03:37:35;;;;;;;1.80;1.70;;;;;;;;;;5051749;28;20466;-79
2022/07/18 03:40:01;;;;;;;2.00;1.90;;;;;;;;;;5051771;28;20405;-79
2022/07/18 03:42:27;;;;;;;1.92;1.80;;;;;;;;;;5033608;28;20965;-79
2022/07/18 03:44:53;;;;;;;2.42;1.80;;;;;;;;;;5051689;28;20382;-79
2022/07/18 03:47:19;;;;;;;2.38;1.90;;;;;;;;;;5051633;28;20417;-80
2022/07/18 03:49:45;;;;;;;2.85;1.90;;;;;;;;;;5051726;28;20381;-79
2022/07/18 03:52:11;;;;;;;1.90;1.80;;;;;;;;;;5049820;28;20374;-79
2022/07/18 03:54:37;;;;;;;2.10;2.00;;;;;;;;;;5037148;28;20943;-79
2022/07/18 03:57:03;;;;;;;2.10;2.00;;;;;;;;;;5050740;28;20386;-79
2022/07/18 03:59:29;;;;;;;1.92;1.77;;;;;;;;;;5041365;28;20377;-79
2022/07/18 04:01:55;;;;;;;2.20;1.88;;;;;;;;;;5050667;28;20443;-79
2022/07/18 04:04:21;;;;;;;2.10;1.80;;;;;;;;;;5050414;28;20501;-79
2022/07/18 04:06:47;;;;;;;2.40;2.20;;;;;;;;;;5050856;28;20369;-79
2022/07/18 04:09:13;;;;;;;2.20;1.80;;;;;;;;;;5051492;28;20374;-79
2022/07/18 04:11:39;;;;;;;1.98;1.77;;;;;;;;;;5054753;28;20384;-79
2022/07/18 04:14:05;;;;;;;2.08;1.90;;;;;;;;;;5054804;28;20746;-79
2022/07/18 04:16:31;;;;;;;2.30;2.10;;;;;;;;;;5054303;28;20735;-79
2022/07/18 04:18:57;;;;;;;2.13;2.00;;;;;;;;;;5054753;28;20457;-79
2022/07/18 04:21:23;;;;;;;2.17;2.00;;;;;;;;;;5051959;28;20432;-79
2022/07/18 04:23:49;;;;;;;2.35;1.80;;;;;;;;;;5054899;28;20409;-79
2022/07/18 04:26:15;;;;;;;2.20;2.00;;;;;;;;;;5054292;28;20381;-79
2022/07/18 04:28:41;;;;;;;2.65;2.00;;;;;;;;;;5055001;28;20461;-79
2022/07/18 04:31:08;;;;;;;2.30;2.10;;;;;;;;;;5054786;28;20464;-79
2022/07/18 04:33:34;;;;;;;2.08;1.90;;;;;;;;;;5046254;28;20385;-79
2022/07/18 04:36:00;;;;;;;2.70;1.90;;;;;;;;;;5054236;28;20477;-79
2022/07/18 04:38:26;;;;;;;2.50;2.30;;;;;;;;;;5054662;28;20385;-79
2022/07/18 04:40:52;;;;;;;2.25;2.05;;;;;;;;;;5054603;28;20381;-79
2022/07/18 04:43:18;;;;;;;2.72;2.10;;;;;;;;;;5054432;28;20412;-79
2022/07/18 04:45:44;;;;;;;2.38;2.03;;;;;;;;;;5043542;28;20397;-79
2022/07/18 04:48:10;;;;;;;3.40;2.17;;;;;;;;;;5045043;28;20466;-79
2022/07/18 04:50:36;;;;;;;2.95;2.15;;;;;;;;;;5041720;28;20862;-79
2022/07/18 04:53:02;;;;;;;2.10;1.77;;;;;;;;;;5045079;28;20389;-79
2022/07/18 04:55:28;;;;;;;2.50;1.90;;;;;;;;;;5042839;28;20858;-80
2022/07/18 04:57:54;;;;;;;4.87;2.30;;;;;;;;;;5036226;28;20874;-79
2022/07/18 05:00:22;;;;;;;2.20;2.00;;;;;;;;;;5052878;28;20394;-79
2022/07/18 05:02:49;;;;;;;5.55;1.90;;;;;;;;;;5054160;28;20483;-79
2022/07/18 05:05:15;;;;;;;3.63;2.00;;;;;;;;;;5052290;28;20436;-79
2022/07/18 05:07:43;;;;;;;2.03;1.70;;;;;;;;;;5034169;28;20389;-80
2022/07/18 05:10:09;;;;;;;2.73;1.80;;;;;;;;;;5049227;28;20419;-81
2022/07/18 05:12:36;;;;;;;3.03;1.83;;;;;;;;;;5053976;28;20420;-80
2022/07/18 05:15:02;;;;;;;1.90;1.80;;;;;;;;;;5046385;28;20387;-80
2022/07/18 05:17:28;;;;;;;2.50;1.83;;;;;;;;;;5041603;28;20482;-80
2022/07/18 05:19:54;;;;;;;1.67;1.50;;;;;;;;;;5053945;28;20754;-80
2022/07/18 05:22:20;;;;;;;1.65;1.55;;;;;;;;;;5036809;28;20882;-81
2022/07/18 05:24:46;;;;;;;2.20;2.00;;;;;;;;;;5034556;28;20482;-81
2022/07/18 05:27:12;;;;;;;1.65;1.30;;;;;;;;;;5033341;28;20393;-82
2022/07/18 05:29:38;;;;;;;2.00;1.60;;;;;;;;;;5051340;28;20456;-82
2022/07/18 05:32:05;;;;;;;2.63;1.60;;;;;;;;;;5049083;28;20394;-79
2022/07/18 05:34:31;;;;;;;1.50;1.40;;;;;;;;;;5049561;28;20381;-79
2022/07/18 05:36:57;;;;;;;3.03;1.60;;;;;;;;;;5045322;28;20394;-79
2022/07/18 05:39:23;;;;;;;1.80;1.57;;;;;;;;;;5047315;28;20381;-79
2022/07/18 05:41:49;;;;;;;2.45;1.70;;;;;;;;;;5039573;28;20373;-79
2022/07/18 05:44:15;;;;;;;4.18;1.80;;;;;;;;;;5053432;28;20413;-80
2022/07/18 05:46:41;;;;;;;1.63;1.50;;;;;;;;;;5053211;28;20380;-80
2022/07/18 05:49:07;;;;;;;2.20;1.70;;;;;;;;;;5053141;28;20382;-80
2022/07/18 05:51:33;;;;;;;1.77;1.50;;;;;;;;;;5053300;28;20370;-80
2022/07/18 05:53:59;;;;;;;2.40;1.40;;;;;;;;;;5053063;28;20870;-80
2022/07/18 05:56:25;;;;;;;4.10;1.60;;;;;;;;;;5054556;28;20373;-80
2022/07/18 05:58:51;;;;;;;3.27;1.57;;;;;;;;;;5054981;28;20799;-80
2022/07/18 06:01:19;;;;;;;1.85;1.75;;;;;;;;;;5035676;28;20801;-81
2022/07/18 06:03:46;;;;;;;1.83;1.33;;;;;;;;;;5053080;28;20423;-80
2022/07/18 06:06:12;;;;;;;2.35;1.60;;;;;;;;;;5052953;28;20382;-81
2022/07/18 06:08:38;;;;;;;1.57;1.47;;;;;;;;;;5053539;28;20389;-81
2022/07/18 06:11:06;;;;;;;1.60;1.50;;;;;;;;;;5052915;28;20392;-80
2022/07/18 06:13:32;;;;;;;1.87;1.43;;;;;;;;;;5052787;28;20385;-81
2022/07/18 06:15:58;;;;;;;1.40;1.30;;;;;;;;;;5052704;28;20421;-81
2022/07/18 06:18:24;;;;;;;3.90;1.60;;;;;;;;;;5053045;28;20401;-81
2022/07/18 06:20:50;;;;;;;2.22;1.45;;;;;;;;;;5052433;28;20750;-80
2022/07/18 06:23:16;;;;;;;1.70;1.52;;;;;;;;;;5044336;28;20410;-80
2022/07/18 06:25:42;;;;;;;1.88;1.50;;;;;;;;;;5033645;28;20379;-80
2022/07/18 06:28:08;;;;;;;2.30;1.40;;;;;;;;;;5045944;28;20438;-80
2022/07/18 06:30:34;;;;;;;3.00;1.33;;;;;;;;;;5049029;28;20464;-80
2022/07/18 06:33:03;;;;;;;1.77;1.50;;;;;;;;;;5040943;28;20433;-81
2022/07/18 06:35:29;;;;;;;2.57;1.57;;;;;;;;;;5046876;28;20417;-81
2022/07/18 06:37:55;;;;;;;2.40;1.50;;;;;;;;;;5044385;28;20398;-81
2022/07/18 06:40:24;;;;;;;2.80;1.60;;;;;;;;;;5037434;28;20389;-80
2022/07/18 06:42:50;;;;;;;4.38;2.00;;;;;;;;;;5033946;28;20397;-80
2022/07/18 06:45:16;;;;;;;2.38;1.80;;;;;;;;;;5051137;28;20523;-80
2022/07/18 06:47:43;;;;;;;1.60;1.50;;;;;;;;;;5051968;28;20455;-80
2022/07/18 06:50:09;;;;;;;1.80;1.30;;;;;;;;;;5051960;28;20370;-80
2022/07/18 06:52:35;;;;;;;2.63;1.50;;;;;;;;;;5048601;28;20381;-80
2022/07/18 06:55:01;;;;;;;1.48;1.20;;;;;;;;;;5048825;28;20388;-80
2022/07/18 06:57:27;;;;;;;1.50;1.37;;;;;;;;;;5052172;28;20499;-80
2022/07/18 06:59:54;;;;;;;2.17;1.40;;;;;;;;;;5052310;28;20393;-80
2022/07/18 07:02:20;;;;;;;2.03;1.50;;;;;;;;;;5051628;28;20389;-80
2022/07/18 07:04:46;;;;;;;1.85;1.27;;;;;;;;;;5052442;28;20400;-80
2022/07/18 07:07:12;;;;;;;2.43;1.50;;;;;;;;;;5051914;28;20855;-80
2022/07/18 07:09:38;;;;;;;1.63;1.40;;;;;;;;;;5052075;28;20386;-80
2022/07/18 07:12:04;;;;;;;3.00;1.58;;;;;;;;;;5052132;28;20380;-80
2022/07/18 07:14:30;;;;;;;3.10;1.50;;;;;;;;;;5044747;28;20444;-80
2022/07/18 07:16:56;;;;;;;2.92;1.50;;;;;;;;;;5045638;28;20461;-80
2022/07/18 07:19:22;;;;;;;1.70;1.38;;;;;;;;;;5046379;28;20740;-80
2022/07/18 07:21:48;;;;;;;2.00;1.40;;;;;;;;;;5044140;28;20382;-80
2022/07/18 07:24:14;;;;;;;3.67;1.40;;;;;;;;;;5051853;28;20404;-80
2022/07/18 07:26:40;;;;;;;5.30;1.80;;;;;;;;;;5051859;28;20498;-80
2022/07/18 07:29:06;;;;;;;4.20;1.50;;;;;;;;;;5051841;28;20373;-80
2022/07/18 07:31:32;;;;;;;1.50;1.40;;;;;;;;;;5051957;28;20405;-80
2022/07/18 07:33:58;;;;;;;1.50;1.20;;;;;;;;;;5051987;28;20393;-80
2022/07/18 07:36:24;;;;;;;50.97;3.40;;;;;;;;;;5051713;28;20438;-80
2022/07/18 07:38:50;;;;;;;19.52;3.17;;;;;;;;;;5051799;28;20377;-80
2022/07/18 07:41:16;;;;;;;2.80;1.63;;;;;;;;;;5051651;28;20381;-80
2022/07/18 07:43:42;;;;;;;2.33;1.50;;;;;;;;;;5051723;28;20967;-80
2022/07/18 07:46:10;;;;;;;2.35;1.45;;;;;;;;;;5054169;28;20392;-80
2022/07/18 07:48:36;;;;;;;3.30;1.50;;;;;;;;;;5055686;28;20864;-80
2022/07/18 07:51:03;;;;;;;1.50;1.40;;;;;;;;;;5055617;28;20451;-80
2022/07/18 07:53:29;;;;;;;1.75;1.35;;;;;;;;;;5055421;28;20750;-80
2022/07/18 07:55:55;;;;;;;1.70;1.40;;;;;;;;;;5055661;28;20893;-80
2022/07/18 07:58:21;;;;;;;1.80;1.30;;;;;;;;;;5055450;28;20490;-80
2022/07/18 08:00:47;;;;;;;2.03;1.50;;;;;;;;;;5055527;28;20385;-80
2022/07/18 08:03:13;;;;;;;2.58;1.50;;;;;;;;;;5055213;28;20465;-80
2022/07/18 08:05:46;;;;;;;1.85;1.40;;;;;;;;;;5055477;28;20378;-80
2022/07/18 08:08:12;;;;;;;2.57;1.70;;;;;;;;;;5041239;28;20457;-80
2022/07/18 08:10:38;;;;;;;4.20;1.58;;;;;;;;;;5055292;28;20400;-80
2022/07/18 08:13:04;;;;;;;4.63;2.10;;;;;;;;;;5055367;28;20373;-80
2022/07/18 08:15:31;;;;;;;2.05;1.50;;;;;;;;;;5054947;28;20465;-80
2022/07/18 08:17:57;;;;;;;2.63;1.75;;;;;;;;;;5055249;28;20432;-80
2022/07/18 08:20:23;;;;;;;2.35;1.60;;;;;;;;;;5055034;28;20385;-80
2022/07/18 08:23:08;;;;;;;3.15;1.52;;;;;;;;;;5055175;28;20750;-80
2022/07/18 08:25:39;;;;;;;3.85;1.90;;;;;;;;;;5054779;28;20380;-80
2022/07/18 08:28:05;;;;;;;4.50;1.80;;;;;;;;;;5049831;28;20375;-80
2022/07/18 08:30:32;;;;;;;6.75;1.98;;;;;;;;;;5051214;28;20378;-80
2022/07/18 08:32:58;;;;;;;5.25;2.22;;;;;;;;;;5051352;28;20377;-80
2022/07/18 08:35:24;;;;;;;6.03;1.83;;;;;;;;;;5054795;28;20381;-80
2022/07/18 08:37:50;;;;;;;6.28;1.85;;;;;;;;;;5054576;28;20385;-80
2022/07/18 08:40:17;;;;;;;4.40;1.80;;;;;;;;;;5054882;28;20389;-80
2022/07/18 08:42:43;;;;;;;5.00;2.05;;;;;;;;;;5054375;28;20433;-80
2022/07/18 08:45:09;;;;;;;4.53;1.60;;;;;;;;;;5054524;28;20412;-80
2022/07/18 08:47:35;;;;;;;5.63;1.85;;;;;;;;;;5054439;28;20930;-80
2022/07/18 08:50:04;;;;;;;6.40;1.85;;;;;;;;;;5054407;28;20421;-80
2022/07/18 08:52:30;;;;;;;6.72;2.00;;;;;;;;;;5051007;28;20426;-80
2022/07/18 08:54:57;;;;;;;3.45;1.90;;;;;;;;;;5054282;28;20866;-80
2022/07/18 08:57:23;;;;;;;4.47;1.92;;;;;;;;;;5053955;28;20381;-80
2022/07/18 08:59:49;;;;;;;5.77;2.00;;;;;;;;;;5054103;28;20743;-80
2022/07/18 09:02:15;;;;;;;5.72;2.33;;;;;;;;;;5053694;28;20398;-80
2022/07/18 09:04:43;;;;;;;4.20;2.00;;;;;;;;;;5054172;28;20870;-80
2022/07/18 09:07:10;;;;;;;4.57;2.00;;;;;;;;;;5054196;28;20746;-80
2022/07/18 09:09:36;;;;;;;4.80;1.88;;;;;;;;;;5054090;28;20876;-80
2022/07/18 09:12:08;;;;;;;3.55;2.00;;;;;;;;;;5054067;28;20883;-80
2022/07/18 09:14:40;;;;;;;4.75;2.05;;;;;;;;;;5053942;28;20385;-80
2022/07/18 09:17:08;;;;;;;3.07;1.83;;;;;;;;;;5053843;28;20874;-80
2022/07/18 09:19:34;;;;;;;2.92;1.80;;;;;;;;;;5053967;28;20903;-80
2022/07/18 09:22:20;;;;;;;3.00;1.60;;;;;;;;;;5053817;28;20878;-80
2022/07/18 09:24:55;;;;;;;3.00;1.80;;;;;;;;;;5054224;28;20382;-80
2022/07/18 09:27:35;;;;;;;3.17;1.80;;;;;;;;;;5057654;28;20838;-80
2022/07/18 09:30:08;;;;;;;6.20;2.07;;;;;;;;;;5046025;28;20378;-80
2022/07/18 09:32:34;;;;;;;5.70;1.83;;;;;;;;;;5049523;28;20424;-80
2022/07/18 09:35:06;;;;;;;2.88;2.00;;;;;;;;;;5052435;28;20369;-80
2022/07/18 09:37:33;;;;;;;3.33;2.17;;;;;;;;;;5052250;28;20427;-80
2022/07/18 09:40:14;;;;;;;2.70;1.90;;;;;;;;;;5055192;28;20380;-80
2022/07/18 09:42:40;;;;;;;5.13;1.73;;;;;;;;;;5053270;28;20409;-80
2022/07/18 09:45:07;;;;;;;2.55;1.73;;;;;;;;;;5053434;28;20778;-81
2022/07/18 09:47:50;;;;;;;3.83;1.70;;;;;;;;;;5053444;28;20404;-80
2022/07/18 09:50:20;;;;;;;4.60;1.70;;;;;;;;;;5053378;28;20915;-81
2022/07/18 09:52:55;;;;;;;2.33;1.45;;;;;;;;;;5053380;28;20435;-80
2022/07/18 09:55:21;;;;;;;3.90;1.70;;;;;;;;;;5053269;28;20382;-80
2022/07/18 09:57:57;;;;;;;5.03;1.85;;;;;;;;;;5053114;28;20464;-82
2022/07/18 10:00:23;;;;;;;5.15;1.60;;;;;;;;;;5053372;28;20742;-82
2022/07/18 10:02:49;;;;;;;4.93;2.05;;;;;;;;;;5053165;28;20421;-82
2022/07/18 10:05:15;;;;;;;4.53;1.80;;;;;;;;;;5044406;28;20400;-81
2022/07/18 10:07:41;;;;;;;3.35;1.63;;;;;;;;;;5034233;28;20383;-81
2022/07/18 10:10:07;;;;;;;4.00;1.73;;;;;;;;;;5043766;28;20379;-82
2022/07/18 10:12:33;;;;;;;2.83;1.80;;;;;;;;;;5039800;28;20479;-81
2022/07/18 10:14:59;;;;;;;1.87;1.67;;;;;;;;;;5035493;28;20383;-81
2022/07/18 10:17:25;;;;;;;1.70;1.33;;;;;;;;;;5039043;28;20398;-81
2022/07/18 10:19:51;;;;;;;4.57;1.30;;;;;;;;;;5049497;28;20895;-82
2022/07/18 10:22:18;;;;;;;2.10;1.27;;;;;;;;;;5052779;28;20385;-81
2022/07/18 10:24:44;;;;;;;2.50;1.73;;;;;;;;;;5044521;28;21005;-81
2022/07/18 10:27:18;;;;;;;3.78;1.60;;;;;;;;;;5035892;28;20487;-81
2022/07/18 10:30:02;;;;;;;2.42;1.75;;;;;;;;;;5032928;28;20458;-81
2022/07/18 10:32:34;;;;;;;2.33;1.50;;;;;;;;;;5051153;28;20389;-81
2022/07/18 10:35:00;;;;;;;3.97;1.50;;;;;;;;;;5052608;28;20373;-81
2022/07/18 10:37:26;;;;;;;3.30;1.60;;;;;;;;;;5039641;28;20378;-79
2022/07/18 10:39:54;;;;;;;1.40;1.30;;;;;;;;;;5034023;28;20899;-79
2022/07/18 10:42:24;;;;;;;2.25;1.40;;;;;;;;;;5032857;28;20466;-80
2022/07/18 10:44:50;;;;;;;1.67;1.30;;;;;;;;;;5037817;28;20716;-79
2022/07/18 10:47:17;;;;;;;1.50;1.20;;;;;;;;;;5051544;28;20850;-80
2022/07/18 10:49:58;;;;;;;4.00;1.58;;;;;;;;;;5037434;28;20378;-80
2022/07/18 10:52:27;;;;;;;3.38;1.30;;;;;;;;;;5052377;28;20460;-80
2022/07/18 10:55:20;;;;;;;1.83;1.23;;;;;;;;;;5052232;28;20389;-80
2022/07/18 10:57:49;;;;;;;3.13;1.27;;;;;;;;;;5052247;28;20386;-80
2022/07/18 11:00:17;;;;;;;3.15;1.20;;;;;;;;;;5051838;28;20374;-79
2022/07/18 11:02:47;;;;;;;1.70;1.20;;;;;;;;;;5049621;28;20413;-80
2022/07/18 11:05:25;;;;;;;1.30;1.10;;;;;;;;;;5051699;28;20463;-79
2022/07/18 11:08:13;;;;;;;3.88;1.50;;;;;;;;;;5052272;28;20380;-79
2022/07/18 11:10:45;;;;;;;1.77;1.25;;;;;;;;;;5042006;28;20410;-79
2022/07/18 11:13:33;;;;;;;1.20;0.98;;;;;;;;;;5052387;28;20479;-79
2022/07/18 11:16:09;;;;;;;1.67;1.00;;;;;;;;;;5052240;28;20378;-79
2022/07/18 11:18:44;;;;;;;2.37;1.20;;;;;;;;;;5052384;28;20586;-79
2022/07/18 11:21:20;;;;;;;2.13;0.95;;;;;;;;;;5056284;28;20408;-79
2022/07/18 11:23:47;;;;;;;1.83;0.80;;;;;;;;;;5056010;28;20408;-79
2022/07/18 11:26:17;;;;;;;3.22;1.20;;;;;;;;;;5055986;28;20863;-79
2022/07/18 11:28:43;;;;;;;1.42;1.10;;;;;;;;;;5047226;28;20732;-79
2022/07/18 11:31:10;;;;;;;1.08;0.90;;;;;;;;;;5038877;28;20385;-79
2022/07/18 11:33:38;;;;;;;0.80;0.63;;;;;;;;;;5056028;28;20442;-79
2022/07/18 11:36:09;;;;;;;1.30;0.60;;;;;;;;;;5055858;28;20385;-79
2022/07/18 11:38:36;;;;;;;0.75;0.70;;;;;;;;;;5055820;28;20881;-79
2022/07/18 11:41:03;;;;;;;0.60;0.60;;;;;;;;;;5055818;28;20789;-79
2022/07/18 11:43:29;;;;;;;0.82;0.60;;;;;;;;;;5055706;28;20440;-79
2022/07/18 11:46:01;;;;;;;1.48;0.60;;;;;;;;;;5055726;28;20406;-79
2022/07/18 11:48:27;;;;;;;1.65;0.60;;;;;;;;;;5055973;28;20377;-79
2022/07/18 11:50:53;;;;;;;2.55;0.82;;;;;;;;;;5055512;28;20385;-79
2022/07/18 11:53:19;;;;;;;1.85;0.77;;;;;;;;;;5055600;28;20415;-79
2022/07/18 11:55:45;;;;;;;2.20;0.80;;;;;;;;;;5055459;28;20802;-79
2022/07/18 11:58:12;;;;;;;1.80;0.90;;;;;;;;;;5055697;28;20412;-79
2022/07/18 12:00:38;;;;;;;2.13;0.83;;;;;;;;;;5055493;28;20384;-79
2022/07/18 12:03:09;;;;;;;1.50;0.82;;;;;;;;;;5047641;28;20437;-79
2022/07/18 12:05:44;;;;;;;1.00;0.80;;;;;;;;;;5055228;28;20973;-79
2022/07/18 12:08:29;;;;;;;1.77;1.00;;;;;;;;;;5055227;28;20374;-79
2022/07/18 12:11:05;;;;;;;1.10;0.90;;;;;;;;;;5055390;28;20457;-79
2022/07/18 12:13:49;;;;;;;1.60;0.90;;;;;;;;;;5038839;28;20441;-79
2022/07/18 12:16:29;;;;;;;1.52;1.15;;;;;;;;;;5055192;28;20377;-79
2022/07/18 12:19:07;;;;;;;1.40;1.23;;;;;;;;;;5055099;28;20382;-79
2022/07/18 12:21:52;;;;;;;2.00;1.20;;;;;;;;;;5054564;28;20772;-79
2022/07/18 12:24:30;;;;;;;2.42;1.30;;;;;;;;;;5045475;28;20405;-79
2022/07/18 12:27:18;;;;;;;2.17;1.40;;;;;;;;;;5049338;28;20384;-79
2022/07/18 12:30:03;;;;;;;2.67;1.20;;;;;;;;;;5044892;28;20369;-79
2022/07/18 12:32:40;;;;;;;2.22;1.30;;;;;;;;;;5052251;28;21039;-79
2022/07/18 12:35:25;;;;;;;1.75;1.30;;;;;;;;;;5053269;28;20393;-79
2022/07/18 12:37:53;;;;;;;1.70;1.20;;;;;;;;;;5054098;28;20388;-79
2022/07/18 12:40:19;;;;;;;1.88;1.10;;;;;;;;;;5054952;28;20393;-79
2022/07/18 12:42:45;;;;;;;1.92;1.25;;;;;;;;;;5053992;28;20417;-79
2022/07/18 12:45:12;;;;;;;2.22;1.20;;;;;;;;;;5055334;28;20374;-79
2022/07/18 12:47:38;;;;;;;1.05;0.95;;;;;;;;;;5054493;28;20382;-79
2022/07/18 12:50:04;;;;;;;2.72;1.42;;;;;;;;;;5054195;28;20453;-79
2022/07/18 12:52:30;;;;;;;3.17;1.25;;;;;;;;;;5053877;28;20417;-79
2022/07/18 12:54:56;;;;;;;2.10;1.20;;;;;;;;;;5054203;28;20409;-79
2022/07/18 12:57:23;;;;;;;1.85;1.20;;;;;;;;;;5054011;28;20369;-79
2022/07/18 12:59:49;;;;;;;1.90;1.13;;;;;;;;;;5053436;28;20456;-79
2022/07/18 13:02:15;;;;;;;2.57;1.30;;;;;;;;;;5052058;28;20396;-79
2022/07/18 13:04:41;;;;;;;1.55;1.23;;;;;;;;;;5051930;28;20488;-79
2022/07/18 13:07:07;;;;;;;1.77;1.10;;;;;;;;;;5052812;28;20878;-79
2022/07/18 13:09:33;;;;;;;1.60;1.20;;;;;;;;;;5052991;28;20467;-79
2022/07/18 13:12:00;;;;;;;1.70;1.15;;;;;;;;;;5044776;28;20473;-79
2022/07/18 13:14:26;;;;;;;1.85;1.40;;;;;;;;;;5052359;28;20385;-79
2022/07/18 13:16:52;;;;;;;1.50;1.20;;;;;;;;;;5056767;28;20443;-79
2022/07/18 13:19:19;;;;;;;1.25;1.17;;;;;;;;;;5053480;28;20428;-79
2022/07/18 13:21:45;;;;;;;2.27;1.30;;;;;;;;;;5053641;28;20396;-79
2022/07/18 13:24:11;;;;;;;2.20;1.30;;;;;;;;;;5053267;28;20463;-79
2022/07/18 13:26:37;;;;;;;2.13;1.20;;;;;;;;;;5053284;28;20464;-79
2022/07/18 13:29:04;;;;;;;1.75;1.25;;;;;;;;;;5044983;28;20393;-79
2022/07/18 13:31:30;;;;;;;2.05;1.20;;;;;;;;;;5053779;28;20740;-79
2022/07/18 13:33:56;;;;;;;1.40;1.20;;;;;;;;;;5053757;28;20793;-79
2022/07/18 13:36:22;;;;;;;3.08;1.30;;;;;;;;;;5053609;28;20456;-79
2022/07/18 13:38:48;;;;;;;2.92;1.50;;;;;;;;;;5053584;28;20476;-79
2022/07/18 13:41:14;;;;;;;2.10;1.10;;;;;;;;;;5035601;28;20893;-79
2022/07/18 13:43:40;;;;;;;2.50;1.10;;;;;;;;;;5050563;28;20421;-79
2022/07/18 13:46:10;;;;;;;1.40;1.30;;;;;;;;;;5044383;28;20393;-79
2022/07/18 13:48:37;;;;;;;2.33;1.30;;;;;;;;;;5037705;28;20394;-79
2022/07/18 13:51:03;;;;;;;5.68;1.30;;;;;;;;;;5046566;28;20904;-79
2022/07/18 13:53:29;;;;;;;2.13;1.13;;;;;;;;;;5051635;28;20872;-79
2022/07/18 13:55:56;;;;;;;2.72;1.02;;;;;;;;;;5051798;28;20382;-80
2022/07/18 13:58:22;;;;;;;3.60;1.50;;;;;;;;;;5051062;28;20403;-79
2022/07/18 14:00:48;;;;;;;1.63;1.23;;;;;;;;;;5044559;28;20382;-80
2022/07/18 14:03:14;;;;;;;2.67;1.20;;;;;;;;;;5049452;28;20419;-79
2022/07/18 14:05:40;;;;;;;2.55;1.13;;;;;;;;;;5053209;28;20435;-78
2022/07/18 14:08:07;;;;;;;1.93;1.17;;;;;;;;;;5048090;28;20387;-79
2022/07/18 14:10:34;;;;;;;1.40;1.10;;;;;;;;;;5051005;28;20373;-80
2022/07/18 14:13:00;;;;;;;1.88;1.10;;;;;;;;;;5051930;28;20862;-79
2022/07/18 14:15:26;;;;;;;2.05;1.30;;;;;;;;;;5052822;28;20393;-80
2022/07/18 14:17:52;;;;;;;1.42;1.20;;;;;;;;;;5050255;28;20465;-80
2022/07/18 14:20:18;;;;;;;3.15;1.30;;;;;;;;;;5052733;28;20409;-80
2022/07/18 14:22:45;;;;;;;1.73;1.20;;;;;;;;;;5051323;28;20393;-80
2022/07/18 14:25:12;;;;;;;2.10;1.20;;;;;;;;;;5052540;28;20377;-80
2022/07/18 14:27:38;;;;;;;2.20;1.30;;;;;;;;;;5052581;28;20924;-80
2022/07/18 14:30:05;;;;;;;1.45;1.30;;;;;;;;;;5051687;28;20787;-80
2022/07/18 14:32:31;;;;;;;2.70;1.33;;;;;;;;;;5051171;28;20417;-80
2022/07/18 14:34:57;;;;;;;1.45;1.23;;;;;;;;;;5043885;28;20392;-79
2022/07/18 14:37:23;;;;;;;2.92;1.20;;;;;;;;;;5049210;28;20384;-80
2022/07/18 14:39:49;;;;;;;2.53;1.25;;;;;;;;;;5050722;28;20739;-80
2022/07/18 14:42:16;;;;;;;1.45;1.13;;;;;;;;;;5051242;28;20370;-80
2022/07/18 14:44:42;;;;;;;2.10;1.35;;;;;;;;;;5050495;28;20444;-80
2022/07/18 14:47:08;;;;;;;2.55;1.30;;;;;;;;;;5048460;28;20940;-80